Time;durP1;ratioP1;P1;durP2;ratioP2;P2;SDS_P1;SDS_P2;PMS_P1;PMS_P2;Temp;Humidity;BMP_temperature;BMP_pressure;BME280_temperature;BME280_humidity;BME280_pressure;Samples;Min_cycle;Max_cycle;Signal;HPM_P1;HPM_P2
2023/08/05 00:00:24;;;;;;;7.63;5.80;;;;;;;;;;10495634;28;20048;-86
2023/08/05 00:05:25;;;;;;;8.02;5.55;;;;;;;;;;10511071;28;20587;-83
2023/08/05 00:10:27;;;;;;;9.33;5.93;;;;;;;;;;10498213;28;20048;-82
2023/08/05 00:15:28;;;;;;;9.80;5.72;;;;;;;;;;10471724;28;20298;-78
2023/08/05 00:20:28;;;;;;;8.10;5.57;;;;;;;;;;10457065;28;20049;-78
2023/08/05 00:25:28;;;;;;;8.27;5.97;;;;;;;;;;10468056;28;20296;-77
2023/08/05 00:30:29;;;;;;;7.70;5.73;;;;;;;;;;10471695;28;20904;-78
2023/08/05 00:35:29;;;;;;;10.43;5.57;;;;;;;;;;10471903;28;21326;-77
2023/08/05 00:40:29;;;;;;;7.50;5.30;;;;;;;;;;10457107;28;20645;-79
2023/08/05 00:45:30;;;;;;;8.00;6.00;;;;;;;;;;10470140;28;20779;-79
2023/08/05 00:50:31;;;;;;;9.60;5.67;;;;;;;;;;10473927;28;20052;-78
2023/08/05 00:55:31;;;;;;;7.60;5.28;;;;;;;;;;10472356;28;20333;-78
2023/08/05 01:00:31;;;;;;;7.63;5.93;;;;;;;;;;10471795;28;20363;-79
2023/08/05 01:05:32;;;;;;;8.83;5.70;;;;;;;;;;10472536;28;20291;-80
2023/08/05 01:10:32;;;;;;;9.23;5.70;;;;;;;;;;10482182;28;20045;-80
2023/08/05 01:15:33;;;;;;;9.38;6.45;;;;;;;;;;10487548;28;20052;-80
2023/08/05 01:20:37;;;;;;;7.90;5.53;;;;;;;;;;10484978;28;20036;-80
2023/08/05 01:25:37;;;;;;;8.18;5.90;;;;;;;;;;10486014;28;20041;-79
2023/08/05 01:30:39;;;;;;;8.80;5.75;;;;;;;;;;10503384;28;20377;-82
2023/08/05 01:35:46;;;;;;;7.53;5.55;;;;;;;;;;10485354;28;20048;-80
2023/08/05 01:40:46;;;;;;;10.82;6.15;;;;;;;;;;10489482;28;20155;-83
2023/08/05 01:45:47;;;;;;;8.10;6.10;;;;;;;;;;10493845;28;20052;-82
2023/08/05 01:50:48;;;;;;;9.05;5.70;;;;;;;;;;10478819;28;20128;-79
2023/08/05 01:55:48;;;;;;;8.67;5.67;;;;;;;;;;10485356;28;20062;-79
2023/08/05 02:00:50;;;;;;;8.70;5.85;;;;;;;;;;10441286;28;20060;-79
2023/08/05 02:05:50;;;;;;;10.95;7.20;;;;;;;;;;10463527;28;20481;-81
2023/08/05 02:10:51;;;;;;;10.03;6.63;;;;;;;;;;10482729;28;20044;-82
2023/08/05 02:15:52;;;;;;;7.13;5.78;;;;;;;;;;10503587;28;20075;-80
2023/08/05 02:20:54;;;;;;;11.03;6.40;;;;;;;;;;10497288;28;20480;-80
2023/08/05 02:25:54;;;;;;;9.40;5.73;;;;;;;;;;10482204;28;20036;-81
2023/08/05 02:30:54;;;;;;;8.73;6.03;;;;;;;;;;10486554;28;20290;-81
2023/08/05 02:35:58;;;;;;;8.95;6.15;;;;;;;;;;10477684;28;20041;-81
2023/08/05 02:40:59;;;;;;;10.68;6.30;;;;;;;;;;10483450;28;20639;-80
2023/08/05 02:45:59;;;;;;;7.75;5.60;;;;;;;;;;10480753;28;20055;-82
2023/08/05 02:50:59;;;;;;;9.13;7.00;;;;;;;;;;10473304;28;20074;-82
2023/08/05 02:56:00;;;;;;;7.27;5.87;;;;;;;;;;10476249;28;20049;-81
2023/08/05 03:01:10;;;;;;;11.87;6.83;;;;;;;;;;10485133;28;20085;-81
2023/08/05 03:06:10;;;;;;;8.60;6.20;;;;;;;;;;10476327;28;20295;-82
2023/08/05 03:11:10;;;;;;;6.60;5.50;;;;;;;;;;10483564;28;20052;-81
2023/08/05 03:16:13;;;;;;;7.97;5.82;;;;;;;;;;10487254;28;20040;-81
2023/08/05 03:21:21;;;;;;;7.95;6.43;;;;;;;;;;10457343;28;20845;-80
2023/08/05 03:26:21;;;;;;;9.43;6.38;;;;;;;;;;10499775;28;20104;-81
2023/08/05 03:31:23;;;;;;;9.02;6.38;;;;;;;;;;10483390;28;20115;-82
2023/08/05 03:36:24;;;;;;;10.38;6.53;;;;;;;;;;10479522;28;20051;-83
2023/08/05 03:41:25;;;;;;;8.93;5.85;;;;;;;;;;10468606;28;20511;-82
2023/08/05 03:46:25;;;;;;;8.68;7.07;;;;;;;;;;10457919;28;20050;-82
2023/08/05 03:51:27;;;;;;;11.48;7.70;;;;;;;;;;10455441;28;20102;-80
2023/08/05 03:56:28;;;;;;;11.50;7.90;;;;;;;;;;10459584;28;20626;-83
2023/08/05 04:01:32;;;;;;;10.23;7.27;;;;;;;;;;10467625;28;20063;-83
2023/08/05 04:06:32;;;;;;;9.48;7.10;;;;;;;;;;10486333;28;20044;-84
2023/08/05 04:11:34;;;;;;;9.90;7.55;;;;;;;;;;10450491;28;20781;-83
2023/08/05 04:16:34;;;;;;;7.93;6.53;;;;;;;;;;10490328;28;20048;-81
2023/08/05 04:21:45;;;;;;;11.23;7.35;;;;;;;;;;10501774;28;20048;-82
2023/08/05 04:26:45;;;;;;;9.32;6.68;;;;;;;;;;10515780;28;20044;-83
2023/08/05 04:31:46;;;;;;;14.57;7.93;;;;;;;;;;10488083;28;20809;-82
2023/08/05 04:36:48;;;;;;;10.77;8.30;;;;;;;;;;10476736;28;20049;-82
2023/08/05 04:41:48;;;;;;;11.13;7.70;;;;;;;;;;10466653;28;20288;-83
2023/08/05 04:46:48;;;;;;;13.02;8.98;;;;;;;;;;10485119;28;20052;-83
2023/08/05 04:51:50;;;;;;;10.07;7.25;;;;;;;;;;10491284;28;20052;-84
2023/08/05 04:56:50;;;;;;;10.57;6.90;;;;;;;;;;10495138;28;20124;-85
2023/08/05 05:01:51;;;;;;;9.98;7.50;;;;;;;;;;10488271;28;20143;-85
2023/08/05 05:06:52;;;;;;;11.40;8.13;;;;;;;;;;10491651;28;20178;-86
2023/08/05 05:11:53;;;;;;;8.23;7.13;;;;;;;;;;10499230;28;20273;-84
2023/08/05 05:16:54;;;;;;;8.32;6.50;;;;;;;;;;10505231;28;20031;-85
2023/08/05 05:21:56;;;;;;;8.65;6.20;;;;;;;;;;10502185;28;20132;-85
2023/08/05 05:26:57;;;;;;;8.80;6.70;;;;;;;;;;10500675;28;20048;-83
2023/08/05 05:31:57;;;;;;;8.95;6.82;;;;;;;;;;10504304;28;20090;-85
2023/08/05 05:36:58;;;;;;;11.00;7.33;;;;;;;;;;10483279;28;20134;-87
2023/08/05 05:42:02;;;;;;;11.30;6.85;;;;;;;;;;10512408;28;20342;-92
2023/08/05 05:47:14;;;;;;;10.85;7.40;;;;;;;;;;10528079;28;20051;-92
2023/08/05 05:52:18;;;;;;;9.52;7.13;;;;;;;;;;10520254;28;20167;-86
2023/08/05 05:57:20;;;;;;;9.93;6.78;;;;;;;;;;10495738;28;20616;-90
2023/08/05 06:02:31;;;;;;;8.43;6.75;;;;;;;;;;10468823;28;20056;-85
2023/08/05 06:07:40;;;;;;;8.93;7.00;;;;;;;;;;10490294;28;20052;-89
2023/08/05 06:12:40;;;;;;;11.52;7.57;;;;;;;;;;10501978;28;20032;-89
2023/08/05 06:17:45;;;;;;;8.70;7.13;;;;;;;;;;10484701;28;20052;-88
2023/08/05 06:22:47;;;;;;;11.52;7.07;;;;;;;;;;10477901;28;20053;-87
2023/08/05 06:27:59;;;;;;;10.38;6.97;;;;;;;;;;10497465;28;20136;-91
2023/08/05 06:33:04;;;;;;;10.20;7.65;;;;;;;;;;10525291;28;20056;-87
2023/08/05 06:38:10;;;;;;;12.48;7.00;;;;;;;;;;10494689;28;20066;-87
2023/08/05 06:43:11;;;;;;;9.75;7.22;;;;;;;;;;10502043;28;20405;-93
2023/08/05 06:48:38;;;;;;;7.63;6.78;;;;;;;;;;10522320;28;20279;-91
2023/08/05 06:53:44;;;;;;;7.32;6.15;;;;;;;;;;10540680;28;20062;-90
2023/08/05 06:59:10;;;;;;;6.80;6.10;;;;;;;;;;10540747;28;20056;-91
2023/08/05 07:04:14;;;;;;;6.70;5.95;;;;;;;;;;10498126;28;20056;-89
2023/08/05 07:10:11;;;;;;;6.75;5.75;;;;;;;;;;10502439;28;22106;-88
2023/08/05 07:20:40;;;;;;;8.13;5.60;;;;;;;;;;10512394;28;20040;-90
2023/08/05 07:25:40;;;;;;;8.65;6.20;;;;;;;;;;10520291;28;20048;-91
2023/08/05 07:30:44;;;;;;;10.13;7.03;;;;;;;;;;10508189;28;20044;-91
2023/08/05 07:36:08;;;;;;;;;;;;;;;;;;10525597;28;20068;-88
2023/08/05 07:41:11;;;;;;;7.70;6.05;;;;;;;;;;10527619;28;19928;-88
2023/08/05 07:46:16;;;;;;;8.50;6.22;;;;;;;;;;10515394;28;20079;-88
2023/08/05 07:56:49;;;;;;;9.27;6.75;;;;;;;;;;10538099;28;20111;-90
2023/08/05 08:01:59;;;;;;;8.68;6.63;;;;;;;;;;10531768;28;20036;-88
2023/08/05 08:12:32;;;;;;;7.13;5.75;;;;;;;;;;10615722;23;20154;-91
2023/08/05 08:17:41;;;;;;;7.85;6.63;;;;;;;;;;10370353;28;20045;-91
2023/08/05 08:23:32;;;;;;;;;;;;;;;;;;;;;
2023/08/05 08:28:42;;;;;;;6.75;6.00;;;;;;;;;;10557822;23;20046;-91
2023/08/05 08:33:52;;;;;;;6.50;5.90;;;;;;;;;;10406008;28;20037;-90
2023/08/05 08:39:21;;;;;;;7.78;6.18;;;;;;;;;;10417144;28;20057;-88
2023/08/05 08:44:32;;;;;;;6.40;5.30;;;;;;;;;;10418014;28;20057;-90
2023/08/05 08:49:45;;;;;;;6.32;5.72;;;;;;;;;;10368010;28;20085;-88
2023/08/05 08:54:52;;;;;;;5.82;5.32;;;;;;;;;;10374366;28;20046;-90
2023/08/05 09:00:18;;;;;;;5.95;5.00;;;;;;;;;;10400743;28;20041;-92
2023/08/05 09:10:47;;;;;;;6.55;5.93;;;;;;;;;;10516392;23;20134;-90
2023/08/05 09:15:58;;;;;;;6.40;5.35;;;;;;;;;;10417079;28;20069;-91
2023/08/05 09:21:29;;;;;;;5.85;5.28;;;;;;;;;;10411102;28;20174;-89
2023/08/05 09:26:32;;;;;;;5.55;4.82;;;;;;;;;;10380151;28;20042;-90
2023/08/05 09:32:02;;;;;;;8.48;5.72;;;;;;;;;;10416622;28;20108;-89
2023/08/05 09:37:16;;;;;;;5.35;4.85;;;;;;;;;;10428481;28;20053;-90
2023/08/05 09:42:31;;;;;;;5.97;5.38;;;;;;;;;;10407379;28;20045;-92
2023/08/05 09:47:41;;;;;;;5.32;4.72;;;;;;;;;;10387113;28;20054;-90
2023/08/05 09:52:50;;;;;;;5.45;4.63;;;;;;;;;;10391104;28;20253;-89
2023/08/05 09:57:58;;;;;;;5.80;4.95;;;;;;;;;;10388907;28;20045;-89
2023/08/05 10:03:00;;;;;;;5.47;4.97;;;;;;;;;;10383705;28;20513;-89
2023/08/05 10:08:11;;;;;;;5.38;4.65;;;;;;;;;;10412327;28;20049;-88
2023/08/05 10:13:28;;;;;;;7.88;5.90;;;;;;;;;;10838313;23;20054;-93
2023/08/05 10:19:02;;;;;;;6.65;4.75;;;;;;;;;;10619269;23;20057;-90
2023/08/05 10:30:01;;;;;;;5.47;4.97;;;;;;;;;;10568886;22;20045;-93
2023/08/05 10:36:02;;;;;;;6.28;4.55;;;;;;;;;;11416988;23;20053;-93
2023/08/05 10:41:51;;;;;;;8.55;5.72;;;;;;;;;;10298393;28;20146;-91
2023/08/05 10:47:38;;;;;;;5.32;4.82;;;;;;;;;;10372180;28;20050;-90
2023/08/05 10:53:10;;;;;;;5.50;4.82;;;;;;;;;;10374313;28;20057;-89
2023/08/05 11:03:56;;;;;;;5.28;4.78;;;;;;;;;;10365609;28;20050;-94
2023/08/05 11:09:00;;;;;;;5.30;4.80;;;;;;;;;;10349314;28;20042;-90
2023/08/05 11:14:11;;;;;;;4.90;4.50;;;;;;;;;;10373411;28;20274;-92
2023/08/05 11:19:21;;;;;;;5.40;4.45;;;;;;;;;;10338881;28;20934;-90
2023/08/05 11:24:31;;;;;;;5.10;4.50;;;;;;;;;;10368617;28;20109;-88
2023/08/05 11:29:42;;;;;;;4.55;4.15;;;;;;;;;;10366496;28;20320;-91
2023/08/05 11:35:07;;;;;;;5.50;4.40;;;;;;;;;;10364374;28;20022;-91
2023/08/05 11:40:50;;;;;;;8.05;4.72;;;;;;;;;;10394370;28;20156;-89
2023/08/05 11:45:54;;;;;;;6.05;4.00;;;;;;;;;;10333739;28;20041;-89
2023/08/05 11:50:59;;;;;;;3.90;3.60;;;;;;;;;;10371929;28;20061;-88
2023/08/05 11:56:02;;;;;;;5.78;3.60;;;;;;;;;;10386382;28;20026;-90
2023/08/05 12:01:28;;;;;;;4.53;3.97;;;;;;;;;;10357114;28;20046;-89
2023/08/05 12:06:32;;;;;;;4.18;3.75;;;;;;;;;;10353017;28;20065;-91
2023/08/05 12:11:48;;;;;;;4.70;3.70;;;;;;;;;;10376013;28;20057;-90
2023/08/05 12:17:01;;;;;;;3.97;3.58;;;;;;;;;;10365031;28;20037;-90
2023/08/05 12:22:09;;;;;;;4.10;3.65;;;;;;;;;;10368370;28;20061;-89
2023/08/05 12:27:21;;;;;;;3.80;3.50;;;;;;;;;;10656976;23;20135;-89
2023/08/05 12:32:38;;;;;;;5.75;4.50;;;;;;;;;;10391588;28;20069;-88
2023/08/05 12:38:00;;;;;;;5.32;3.85;;;;;;;;;;10354279;28;20064;-89
2023/08/05 12:43:02;;;;;;;5.55;4.32;;;;;;;;;;10364387;28;20044;-88
2023/08/05 12:48:12;;;;;;;6.22;4.10;;;;;;;;;;10382464;28;20061;-87
2023/08/05 12:53:18;;;;;;;3.70;3.40;;;;;;;;;;10392378;28;20063;-87
2023/08/05 12:58:28;;;;;;;5.78;3.63;;;;;;;;;;10393502;28;20049;-88
2023/08/05 13:03:38;;;;;;;3.90;3.50;;;;;;;;;;10413676;28;20037;-85
2023/08/05 13:08:40;;;;;;;4.10;3.70;;;;;;;;;;10374860;28;20042;-87
2023/08/05 13:13:40;;;;;;;5.38;3.67;;;;;;;;;;10376368;28;20046;-89
2023/08/05 13:18:43;;;;;;;4.05;3.70;;;;;;;;;;10375703;28;20169;-89
2023/08/05 13:24:08;;;;;;;4.60;4.17;;;;;;;;;;10386083;28;20057;-88
2023/08/05 13:29:11;;;;;;;4.40;3.88;;;;;;;;;;10399396;28;20030;-89
2023/08/05 13:34:20;;;;;;;4.45;4.03;;;;;;;;;;10393275;28;20050;-88
2023/08/05 13:39:22;;;;;;;7.30;4.07;;;;;;;;;;10400646;28;20509;-88
2023/08/05 13:44:30;;;;;;;4.80;4.20;;;;;;;;;;10381934;28;20204;-88
2023/08/05 13:54:49;;;;;;;4.68;4.15;;;;;;;;;;10392640;28;20833;-88
2023/08/05 13:59:51;;;;;;;4.60;4.20;;;;;;;;;;10409830;28;20042;-91
2023/08/05 14:10:52;;;;;;;4.65;3.78;;;;;;;;;;10364044;28;20050;-86
2023/08/05 14:15:52;;;;;;;4.32;3.67;;;;;;;;;;10356483;28;20080;-89
2023/08/05 14:21:12;;;;;;;4.10;3.80;;;;;;;;;;10397278;28;20081;-89
2023/08/05 14:26:20;;;;;;;3.95;3.65;;;;;;;;;;10405544;28;20050;-88
2023/08/05 14:31:29;;;;;;;4.53;4.13;;;;;;;;;;10381553;28;20045;-89
2023/08/05 14:36:31;;;;;;;4.75;3.80;;;;;;;;;;10373476;28;20061;-89
2023/08/05 14:41:34;;;;;;;4.40;3.70;;;;;;;;;;10387315;28;20081;-89
2023/08/05 14:46:59;;;;;;;4.13;3.83;;;;;;;;;;10377985;28;20113;-91
2023/08/05 14:52:00;;;;;;;4.45;4.00;;;;;;;;;;10365867;28;20056;-89
2023/08/05 15:02:20;;;;;;;3.83;3.53;;;;;;;;;;10394706;28;20502;-90
2023/08/05 15:07:41;;;;;;;3.95;3.65;;;;;;;;;;10398869;28;20104;-88
2023/08/05 15:13:02;;;;;;;4.00;3.60;;;;;;;;;;10415156;28;20145;-89
2023/08/05 15:18:08;;;;;;;5.30;3.65;;;;;;;;;;10396697;28;20025;-89
2023/08/05 15:23:10;;;;;;;3.45;3.15;;;;;;;;;;10528429;22;20095;-89
2023/08/05 15:28:11;;;;;;;4.05;3.58;;;;;;;;;;10384536;28;20111;-89
2023/08/05 15:33:18;;;;;;;3.90;3.60;;;;;;;;;;10433532;22;20084;-90
2023/08/05 15:38:22;;;;;;;4.05;3.63;;;;;;;;;;10845076;23;20523;-88
2023/08/05 15:49:00;;;;;;;3.75;3.45;;;;;;;;;;10405338;28;20057;-89
2023/08/05 15:54:08;;;;;;;3.40;3.03;;;;;;;;;;10413269;28;20057;-89
2023/08/05 15:59:40;;;;;;;3.15;2.75;;;;;;;;;;10403372;28;20115;-90
2023/08/05 16:04:41;;;;;;;3.38;3.15;;;;;;;;;;10389459;28;20078;-90
2023/08/05 16:10:02;;;;;;;3.35;3.05;;;;;;;;;;10369855;28;20038;-87
2023/08/05 16:15:30;;;;;;;;;;;;;;;;;;10390066;28;20037;-90
2023/08/05 16:20:31;;;;;;;3.05;2.72;;;;;;;;;;10350406;28;19914;-89
2023/08/05 16:25:32;;;;;;;3.35;3.05;;;;;;;;;;10351432;28;20106;-90
2023/08/05 16:30:59;;;;;;;4.47;3.22;;;;;;;;;;10329248;28;20033;-88
2023/08/05 16:36:12;;;;;;;4.18;2.97;;;;;;;;;;10348500;28;20046;-89
2023/08/05 16:41:22;;;;;;;3.97;3.25;;;;;;;;;;10373671;28;21527;-89
2023/08/05 16:46:58;;;;;;;3.58;3.05;;;;;;;;;;10386640;28;20031;-88
2023/08/05 16:52:59;;;;;;;4.10;3.17;;;;;;;;;;10537338;22;20281;31
2023/08/05 16:58:29;;;;;;;3.70;3.30;;;;;;;;;;10300629;28;20054;-87
2023/08/05 17:03:29;;;;;;;4.85;3.20;;;;;;;;;;10268882;28;20054;-88
2023/08/05 17:08:40;;;;;;;4.40;3.87;;;;;;;;;;10296681;28;20042;-90
2023/08/05 17:13:43;;;;;;;3.55;3.25;;;;;;;;;;10296284;28;20050;-88
2023/08/05 17:18:49;;;;;;;3.80;3.50;;;;;;;;;;10288935;28;20460;-88
2023/08/05 17:24:01;;;;;;;4.47;3.45;;;;;;;;;;10272464;28;20059;-88
2023/08/05 17:29:20;;;;;;;3.50;3.20;;;;;;;;;;10276145;28;20055;-88
2023/08/05 17:34:21;;;;;;;3.50;3.20;;;;;;;;;;10257723;28;20114;-87
2023/08/05 17:39:26;;;;;;;3.97;3.55;;;;;;;;;;10268551;28;20554;-88
2023/08/05 17:44:39;;;;;;;4.18;3.78;;;;;;;;;;10275675;28;20057;-89
2023/08/05 17:49:40;;;;;;;4.53;3.75;;;;;;;;;;10256046;28;20070;-90
2023/08/05 17:54:41;;;;;;;4.15;3.78;;;;;;;;;;10280910;28;20043;-88
2023/08/05 17:59:53;;;;;;;3.90;3.60;;;;;;;;;;10289658;28;20035;-88
2023/08/05 18:05:08;;;;;;;3.95;3.55;;;;;;;;;;10276488;28;20059;-88
2023/08/05 18:10:30;;;;;;;4.30;3.90;;;;;;;;;;10280546;28;20055;-90
2023/08/05 18:15:50;;;;;;;5.20;4.05;;;;;;;;;;10273033;28;20114;-89
2023/08/05 18:20:51;;;;;;;5.90;4.85;;;;;;;;;;10264824;28;20047;-88
2023/08/05 18:31:19;;;;;;;4.60;3.85;;;;;;;;;;10300178;28;20039;-87
2023/08/05 18:36:49;;;;;;;4.25;3.85;;;;;;;;;;10284954;28;20047;-89
2023/08/05 18:41:54;;;;;;;4.30;3.70;;;;;;;;;;10296883;28;20043;-87
2023/08/05 18:47:32;;;;;;;4.28;3.88;;;;;;;;;;10282731;28;20071;-88
2023/08/05 18:53:18;;;;;;;4.43;4.03;;;;;;;;;;10307244;28;20059;-91
2023/08/05 18:59:09;;;;;;;5.38;4.90;;;;;;;;;;10993116;23;20054;-88
2023/08/05 19:04:33;;;;;;;5.00;4.53;;;;;;;;;;10389002;28;20118;-90
2023/08/05 19:10:03;;;;;;;5.95;3.90;;;;;;;;;;10400167;28;20057;-88
2023/08/05 19:15:29;;;;;;;4.50;4.10;;;;;;;;;;10426291;28;20027;-89
2023/08/05 19:20:29;;;;;;;4.97;4.50;;;;;;;;;;10404691;28;20038;-89
2023/08/05 19:25:33;;;;;;;4.97;4.07;;;;;;;;;;10386165;28;20041;-87
2023/08/05 19:30:53;;;;;;;6.05;4.55;;;;;;;;;;10404732;28;20054;-88
2023/08/05 19:36:20;;;;;;;6.50;4.93;;;;;;;;;;10381089;28;20080;-89
2023/08/05 19:41:21;;;;;;;7.28;5.53;;;;;;;;;;10392033;28;20058;-87
2023/08/05 19:46:32;;;;;;;6.72;5.65;;;;;;;;;;10384884;28;20046;-87
2023/08/05 19:51:42;;;;;;;5.95;5.38;;;;;;;;;;10377638;28;20053;-86
2023/08/05 19:57:10;;;;;;;5.60;5.07;;;;;;;;;;10380466;28;20084;-86
2023/08/05 20:02:13;;;;;;;5.70;5.13;;;;;;;;;;10382555;28;20057;-87
2023/08/05 20:07:41;;;;;;;6.18;5.55;;;;;;;;;;10407556;28;20042;-87
2023/08/05 20:12:58;;;;;;;6.28;5.68;;;;;;;;;;10383516;28;20065;-86
2023/08/05 20:18:00;;;;;;;5.70;5.15;;;;;;;;;;10393041;28;20065;-87
2023/08/05 20:24:02;;;;;;;7.38;5.75;;;;;;;;;;10386745;28;20034;-86
2023/08/05 20:29:32;;;;;;;8.65;6.05;;;;;;;;;;10353331;28;20544;-87
2023/08/05 20:34:58;;;;;;;6.05;5.45;;;;;;;;;;10365029;28;20061;-86
2023/08/05 20:39:59;;;;;;;5.80;5.15;;;;;;;;;;10353279;28;20046;-86
2023/08/05 20:45:20;;;;;;;5.78;5.28;;;;;;;;;;10382070;28;20049;-87
2023/08/05 20:50:42;;;;;;;6.35;5.68;;;;;;;;;;10368437;28;20065;-88
2023/08/05 20:55:54;;;;;;;;;;;;;;;;;;;;;
2023/08/05 21:01:01;;;;;;;5.18;4.78;;;;;;;;;;10374339;28;20077;-87
2023/08/05 21:06:10;;;;;;;5.70;5.15;;;;;;;;;;10344149;23;20367;-89
2023/08/05 21:16:37;;;;;;;6.05;5.25;;;;;;;;;;10384149;28;20030;-89
2023/08/05 21:22:09;;;;;;;10.30;5.57;;;;;;;;;;10387147;28;20043;-87
2023/08/05 21:27:40;;;;;;;6.55;5.82;;;;;;;;;;10389355;28;20050;-87
2023/08/05 21:32:49;;;;;;;6.55;5.72;;;;;;;;;;10376321;28;20061;-88
2023/08/05 21:38:29;;;;;;;6.07;5.50;;;;;;;;;;10374047;28;20042;-88
2023/08/05 21:43:53;;;;;;;6.43;5.57;;;;;;;;;;10364136;28;20054;-88
2023/08/05 21:49:04;;;;;;;6.60;6.00;;;;;;;;;;10349091;28;20058;-89
2023/08/05 21:54:09;;;;;;;6.70;6.10;;;;;;;;;;10358433;28;20107;-87
2023/08/05 21:59:13;;;;;;;7.18;5.97;;;;;;;;;;10359854;28;20065;-88
2023/08/05 22:04:53;;;;;;;7.50;6.03;;;;;;;;;;10342762;28;20070;-86
2023/08/05 22:10:05;;;;;;;;;;;;;;;;;;;;;
2023/08/05 22:15:09;;;;;;;10.35;8.00;;;;;;;;;;10323297;28;20111;-90
2023/08/05 22:31:39;;;;;;;13.02;8.98;;;;;;;;;;10352502;28;20396;-85
2023/08/05 22:36:39;;;;;;;16.40;9.15;;;;;;;;;;10313673;28;20050;-86
2023/08/05 22:41:40;;;;;;;13.27;9.10;;;;;;;;;;10316103;28;20054;-86
2023/08/05 22:46:40;;;;;;;10.87;8.80;;;;;;;;;;10327611;28;20050;-84
2023/08/05 22:51:40;;;;;;;12.30;9.13;;;;;;;;;;10334095;28;20061;-86
2023/08/05 22:56:42;;;;;;;11.13;8.52;;;;;;;;;;10329646;28;20054;-87
2023/08/05 23:01:47;;;;;;;11.20;8.48;;;;;;;;;;10328438;28;20054;-86
2023/08/05 23:06:48;;;;;;;13.73;10.23;;;;;;;;;;10326560;28;20855;-85
2023/08/05 23:11:51;;;;;;;12.55;9.88;;;;;;;;;;10312492;28;20050;-87
2023/08/05 23:16:51;;;;;;;12.40;10.70;;;;;;;;;;10324703;28;20042;-87
2023/08/05 23:21:51;;;;;;;11.50;9.77;;;;;;;;;;10318880;28;20541;-86
2023/08/05 23:26:52;;;;;;;10.30;8.97;;;;;;;;;;10350921;28;20096;-87
2023/08/05 23:31:57;;;;;;;9.15;8.25;;;;;;;;;;10345718;28;20052;-88
2023/08/05 23:36:57;;;;;;;9.73;8.37;;;;;;;;;;10368624;28;20129;-90
2023/08/05 23:42:01;;;;;;;11.48;9.23;;;;;;;;;;10347069;28;20285;-90
2023/08/05 23:47:01;;;;;;;10.80;9.27;;;;;;;;;;10381075;28;20322;-87
2023/08/05 23:52:05;;;;;;;12.40;9.37;;;;;;;;;;10356075;28;20074;-86
2023/08/05 23:57:08;;;;;;;11.57;8.27;;;;;;;;;;10324782;28;20388;-87
